Time;durP1;ratioP1;P1;durP2;ratioP2;P2;SDS_P1;SDS_P2;PMS_P1;PMS_P2;Temp;Humidity;BMP_temperature;BMP_pressure;BME280_temperature;BME280_humidity;BME280_pressure;Samples;Min_cycle;Max_cycle;Signal;HPM_P1;HPM_P2
2021/06/29 00:00:06;;;;;;;9.73;7.03;;;;;;;15.86;76.01;101225.34;1745219;82;21078;-87
2021/06/29 00:02:34;;;;;;;11.83;7.67;;;;;;;15.84;76.05;101221.79;1744811;81;20999;-86
2021/06/29 00:05:01;;;;;;;8.55;7.67;;;;;;;15.82;76.16;101221.30;1745056;82;21500;-86
2021/06/29 00:07:28;;;;;;;8.15;7.35;;;;;;;15.81;76.22;101216.87;1744916;82;22403;-86
2021/06/29 00:09:54;;;;;;;9.88;7.65;;;;;;;15.80;76.31;101215.96;1744884;82;20974;-86
2021/06/29 00:12:21;;;;;;;9.73;7.70;;;;;;;15.78;76.34;101210.20;1745040;82;20943;-85
2021/06/29 00:14:48;;;;;;;10.05;8.28;;;;;;;15.77;76.37;101209.77;1744882;82;21153;-86
2021/06/29 00:17:15;;;;;;;9.50;7.67;;;;;;;15.74;76.41;101203.52;1744905;82;21088;-85
2021/06/29 00:19:41;;;;;;;10.23;8.40;;;;;;;15.73;76.50;101206.14;1744972;82;21760;-84
2021/06/29 00:22:08;;;;;;;12.85;7.70;;;;;;;15.71;76.61;101207.45;1744760;81;20975;-85
2021/06/29 00:24:35;;;;;;;10.35;8.18;;;;;;;15.68;76.58;101204.75;1744928;82;20999;-85
2021/06/29 00:27:01;;;;;;;8.55;7.65;;;;;;;15.66;76.62;101198.54;1744824;82;21148;-85
2021/06/29 00:29:28;;;;;;;10.38;7.12;;;;;;;15.62;76.71;101193.20;1745169;82;21013;-86
2021/06/29 00:31:55;;;;;;;11.00;6.75;;;;;;;15.60;76.78;101193.58;1744940;82;21376;-86
2021/06/29 00:34:22;;;;;;;10.65;8.65;;;;;;;15.58;76.81;101189.61;1745021;82;21508;-86
2021/06/29 00:36:48;;;;;;;9.10;7.67;;;;;;;15.57;76.87;101186.94;1745005;82;21077;-86
2021/06/29 00:39:15;;;;;;;8.33;7.40;;;;;;;15.53;76.94;101188.66;1746824;81;21104;-85
2021/06/29 00:41:42;;;;;;;8.25;7.45;;;;;;;15.49;77.04;101186.41;1752346;81;21495;-85
2021/06/29 00:44:20;;;;;;;11.08;7.53;;;;;;;15.47;77.07;101189.92;1752650;81;21743;-85
2021/06/29 00:46:47;;;;;;;10.95;7.50;;;;;;;15.44;77.10;101186.78;1752230;81;21535;-83
2021/06/29 00:49:14;;;;;;;11.30;7.15;;;;;;;15.42;77.21;101188.97;1752650;80;20971;-84
2021/06/29 00:51:40;;;;;;;9.15;6.95;;;;;;;15.40;77.26;101193.37;1752531;80;21496;-83
2021/06/29 00:54:07;;;;;;;7.72;6.92;;;;;;;15.38;77.32;101190.69;1752733;81;21057;-84
2021/06/29 00:56:34;;;;;;;8.40;7.15;;;;;;;15.34;77.36;101188.44;1752711;81;21735;-84
2021/06/29 00:59:00;;;;;;;9.83;6.90;;;;;;;15.33;77.43;101192.39;1731300;81;21100;-84
2021/06/29 01:01:27;;;;;;;8.23;6.72;;;;;;;15.30;77.47;101193.25;1752774;81;20986;-84
2021/06/29 01:03:54;;;;;;;11.45;7.20;;;;;;;15.28;77.46;101185.72;1731568;81;21006;-83
2021/06/29 01:06:20;;;;;;;7.78;6.65;;;;;;;15.27;77.50;101189.66;1752680;81;21001;-84
2021/06/29 01:08:47;;;;;;;7.40;6.70;;;;;;;15.23;77.49;101187.41;1752570;81;21765;-83
2021/06/29 01:11:22;;;;;;;9.30;6.87;;;;;;;15.21;77.54;101188.27;1752579;81;20975;-83
2021/06/29 01:13:49;;;;;;;9.28;7.20;;;;;;;15.18;77.62;101191.75;1752467;80;21060;-84
2021/06/29 01:16:16;;;;;;;7.80;6.78;;;;;;;15.15;77.61;101189.08;1752499;81;21166;-83
2021/06/29 01:18:44;;;;;;;10.72;7.12;;;;;;;15.13;77.65;101191.70;1752583;81;21049;-84
2021/06/29 01:21:19;;;;;;;7.70;6.72;;;;;;;15.11;77.65;101192.56;1723938;81;21554;-84
2021/06/29 01:23:51;;;;;;;8.48;6.97;;;;;;;15.09;77.69;101191.22;1752525;81;21071;-84
2021/06/29 01:26:23;;;;;;;8.13;6.67;;;;;;;15.07;77.65;101188.06;1752682;81;21022;-85
2021/06/29 01:29:03;;;;;;;11.35;7.12;;;;;;;15.05;77.68;101189.37;1753434;80;21263;-84
2021/06/29 01:31:30;;;;;;;7.95;6.28;;;;;;;15.04;77.75;101184.95;1753304;81;21068;-85
2021/06/29 01:33:57;;;;;;;11.63;7.22;;;;;;;15.03;77.82;101184.92;1753162;81;21842;-86
2021/06/29 01:36:38;;;;;;;8.70;6.87;;;;;;;15.03;77.85;101180.95;1732975;81;21041;-86
2021/06/29 01:39:08;;;;;;;11.60;7.03;;;;;;;15.01;77.95;101178.27;1752922;81;21630;-85
2021/06/29 01:41:35;;;;;;;7.90;6.90;;;;;;;15.01;78.00;101182.25;1756454;80;21033;-85
2021/06/29 01:44:07;;;;;;;13.95;6.92;;;;;;;14.99;77.99;101179.13;1756754;81;21557;-85
2021/06/29 01:46:34;;;;;;;7.58;6.85;;;;;;;14.96;77.98;101188.83;1756176;81;21416;-85
2021/06/29 01:48:59;;;;;;;8.43;6.72;;;;;;;14.94;78.02;101181.29;1756619;81;21405;-85
2021/06/29 01:51:26;;;;;;;7.30;6.55;;;;;;;14.93;78.08;101179.94;1756850;81;21538;-85
2021/06/29 01:53:53;;;;;;;8.85;6.72;;;;;;;14.92;78.12;101179.47;1756898;81;21056;-86
2021/06/29 01:56:27;;;;;;;6.90;6.22;;;;;;;14.91;78.20;101175.05;1756762;81;21523;-86
2021/06/29 01:58:57;;;;;;;8.53;7.05;;;;;;;14.90;78.26;101167.55;1756000;80;22723;-86
2021/06/29 02:01:22;;;;;;;7.78;5.65;;;;;;;14.91;78.26;101167.10;1756440;81;21419;-87
2021/06/29 02:03:52;;;;;;;8.10;7.00;;;;;;;14.90;78.32;101167.95;1756884;81;21490;-86
2021/06/29 02:06:18;;;;;;;8.08;6.62;;;;;;;14.91;78.39;101167.98;1756768;81;20949;-86
2021/06/29 02:08:45;;;;;;;8.43;6.80;;;;;;;14.91;78.33;101161.80;1756883;81;21025;-86
2021/06/29 02:11:12;;;;;;;10.45;5.72;;;;;;;14.91;78.30;101161.36;1756802;81;21745;-84
2021/06/29 02:13:39;;;;;;;7.55;5.95;;;;;;;14.89;78.28;101151.17;1756397;81;21006;-85
2021/06/29 02:16:06;;;;;;;8.38;6.20;;;;;;;14.90;78.24;101148.08;1756878;81;21013;-85
2021/06/29 02:18:32;;;;;;;6.47;5.70;;;;;;;14.89;78.28;101149.84;1756624;81;21021;-84
2021/06/29 02:20:59;;;;;;;7.15;6.50;;;;;;;14.87;78.23;101147.61;1756640;81;20997;-84
2021/06/29 02:23:26;;;;;;;8.45;6.12;;;;;;;14.89;78.24;101150.29;1756667;81;22561;-84
2021/06/29 02:25:52;;;;;;;7.05;6.22;;;;;;;14.88;78.20;101146.72;1756682;81;21550;-85
2021/06/29 02:28:19;;;;;;;8.03;6.40;;;;;;;14.89;78.12;101149.84;1756892;81;20983;-85
2021/06/29 02:30:46;;;;;;;6.80;6.20;;;;;;;14.88;78.07;101148.49;1756825;81;21065;-85
2021/06/29 02:33:13;;;;;;;8.28;6.70;;;;;;;14.89;78.00;101155.59;1756758;81;21045;-85
2021/06/29 02:35:40;;;;;;;8.50;6.10;;;;;;;14.88;77.95;101150.70;1756714;80;21788;-85
2021/06/29 02:38:06;;;;;;;9.05;6.17;;;;;;;14.87;77.92;101142.75;1756693;81;21077;-85
2021/06/29 02:40:33;;;;;;;7.20;6.47;;;;;;;14.89;77.87;101138.36;1756635;81;21011;-85
2021/06/29 02:43:00;;;;;;;6.90;6.05;;;;;;;14.89;77.89;101143.22;1756735;81;21002;-85
2021/06/29 02:45:28;;;;;;;6.10;5.50;;;;;;;14.90;77.85;101139.72;1756828;81;21566;-85
2021/06/29 02:47:58;;;;;;;6.45;5.83;;;;;;;14.91;77.82;101139.27;1756824;81;21711;-84
2021/06/29 02:50:23;;;;;;;8.90;6.30;;;;;;;14.92;77.80;101140.62;1756450;81;21005;-84
2021/06/29 02:52:50;;;;;;;6.80;6.10;;;;;;;14.92;77.75;101141.95;1756909;81;21042;-84
2021/06/29 02:55:17;;;;;;;7.87;6.70;;;;;;;14.92;77.74;101136.64;1756887;81;20981;-84
2021/06/29 02:57:43;;;;;;;7.08;6.03;;;;;;;14.94;77.72;101143.27;1756831;80;21108;-84
2021/06/29 03:00:18;;;;;;;6.78;6.05;;;;;;;14.93;77.71;101143.71;1756738;81;21822;-84
2021/06/29 03:02:44;;;;;;;10.15;6.25;;;;;;;14.96;77.72;101145.53;1756718;81;21013;-85
2021/06/29 03:05:15;;;;;;;6.97;6.03;;;;;;;14.96;77.70;101142.44;1725290;81;21084;-85
2021/06/29 03:07:42;;;;;;;8.43;6.53;;;;;;;15.00;77.77;101139.80;1756582;81;21072;-86
2021/06/29 03:10:10;;;;;;;7.55;6.12;;;;;;;15.04;77.74;101139.00;1756784;81;21467;-86
2021/06/29 03:12:37;;;;;;;7.33;5.97;;;;;;;15.08;77.74;101139.48;1756700;81;21761;-85
2021/06/29 03:15:07;;;;;;;7.05;6.35;;;;;;;15.16;77.84;101127.20;1756863;81;20982;-85
2021/06/29 03:17:34;;;;;;;6.80;6.08;;;;;;;15.26;77.88;101130.85;1756795;81;21032;-84
2021/06/29 03:20:01;;;;;;;7.05;5.75;;;;;;;15.38;77.86;101131.45;1756573;80;21141;-84
2021/06/29 03:22:28;;;;;;;7.03;5.33;;;;;;;15.50;77.78;101135.55;1756539;80;21132;-84
2021/06/29 03:24:54;;;;;;;8.23;5.80;;;;;;;15.66;77.77;101133.97;1756632;81;21733;-84
2021/06/29 03:27:21;;;;;;;8.28;5.62;;;;;;;15.81;77.70;101135.47;1756616;81;20927;-84
2021/06/29 03:29:48;;;;;;;13.38;5.87;;;;;;;16.06;77.70;101134.36;1756814;81;21001;-84
2021/06/29 03:32:14;;;;;;;5.67;5.08;;;;;;;16.50;78.60;101132.06;1756575;81;21017;-84
2021/06/29 03:34:41;;;;;;;5.85;5.12;;;;;;;18.32;81.64;101128.67;1756685;80;21001;-84
2021/06/29 03:37:08;;;;;;;8.68;5.25;;;;;;;20.22;78.54;101126.03;1756823;81;21676;-86
2021/06/29 03:39:34;;;;;;;6.08;4.72;;;;;;;21.80;77.35;101116.58;1756565;81;21025;-84
2021/06/29 03:42:01;;;;;;;6.80;4.80;;;;;;;22.85;72.51;101122.81;1756580;81;21654;-84
2021/06/29 03:44:29;;;;;;;5.67;4.40;;;;;;;22.55;69.05;101118.92;1756346;81;39913;-85
2021/06/29 03:46:56;;;;;;;4.90;3.87;;;;;;;21.96;67.93;101119.92;1756706;81;20986;-84
2021/06/29 03:49:22;;;;;;;5.85;4.08;;;;;;;21.68;67.95;101128.38;1756619;81;22571;-84
2021/06/29 03:51:50;;;;;;;6.10;4.08;;;;;;;21.99;68.80;101125.67;1756719;81;21041;-84
2021/06/29 03:54:17;;;;;;;5.20;3.98;;;;;;;23.77;70.30;101123.98;1756645;81;21002;-84
2021/06/29 03:56:44;;;;;;;5.83;3.85;;;;;;;28.04;66.39;101117.38;1756539;81;21577;-84
2021/06/29 03:59:10;;;;;;;8.43;4.00;;;;;;;28.04;66.39;101117.38;1756359;81;20997;-84
2021/06/29 04:01:40;;;;;;;6.78;4.25;;;;;;;29.95;63.01;101118.63;1756505;81;21796;-86
2021/06/29 04:04:06;;;;;;;4.17;3.47;;;;;;;31.50;59.97;101118.56;1756014;81;21502;-84
2021/06/29 04:06:37;;;;;;;3.70;3.40;;;;;;;32.80;57.18;101115.00;1756715;81;21018;-85
2021/06/29 04:09:08;;;;;;;11.63;4.15;;;;;;;33.98;55.35;101109.20;1756454;81;21076;-85
2021/06/29 04:11:35;;;;;;;6.28;3.58;;;;;;;35.02;52.23;101115.58;1754119;81;21093;-86
2021/06/29 04:14:01;;;;;;;5.50;3.20;;;;;;;35.96;50.39;101111.41;1750548;82;21153;-84
2021/06/29 04:16:28;;;;;;;6.37;3.22;;;;;;;36.88;48.64;101112.09;1750339;81;21042;-82
2021/06/29 04:18:55;;;;;;;3.22;2.92;;;;;;;37.79;46.72;101111.05;1750357;82;21070;-85
2021/06/29 04:21:21;;;;;;;5.75;3.20;;;;;;;38.55;44.88;101112.34;1750480;82;21003;-84
2021/06/29 04:23:48;;;;;;;4.55;3.05;;;;;;;39.13;42.76;101117.83;1750341;82;21073;-84
2021/06/29 04:26:18;;;;;;;5.20;3.42;;;;;;;39.57;41.42;101117.92;1750400;82;21740;-84
2021/06/29 04:28:45;;;;;;;3.47;2.85;;;;;;;40.16;40.13;101111.11;1750401;81;20991;-85
2021/06/29 04:31:12;;;;;;;7.15;2.90;;;;;;;40.67;38.52;101102.98;1750580;82;21018;-85
2021/06/29 04:33:39;;;;;;;13.08;2.98;;;;;;;41.14;37.07;101097.44;1750580;82;21066;-85
2021/06/29 04:36:06;;;;;;;4.30;2.98;;;;;;;41.50;36.30;101100.34;1750491;82;21038;-84
2021/06/29 04:38:32;;;;;;;8.38;3.22;;;;;;;41.94;35.08;101101.85;1750308;82;21734;-85
2021/06/29 04:40:59;;;;;;;4.97;3.00;;;;;;;42.35;33.87;101104.14;1742962;81;21481;-85
2021/06/29 04:43:26;;;;;;;6.37;3.10;;;;;;;42.60;32.97;101115.41;1735339;82;21474;-86
2021/06/29 04:45:53;;;;;;;3.25;2.77;;;;;;;43.00;32.29;101107.02;1735246;82;21027;-87
2021/06/29 04:48:19;;;;;;;6.20;3.20;;;;;;;43.38;31.30;101112.59;1735078;81;21003;-84
2021/06/29 04:50:46;;;;;;;3.52;2.80;;;;;;;43.76;30.58;101109.42;1734953;81;21737;-85
2021/06/29 04:53:13;;;;;;;5.00;2.42;;;;;;;44.17;29.95;101109.45;1735297;82;20999;-84
2021/06/29 04:55:50;;;;;;;5.85;2.80;;;;;;;44.48;29.13;101108.22;1735104;82;21024;-84
2021/06/29 04:58:19;;;;;;;4.15;3.05;;;;;;;44.83;28.58;101102.80;1712191;82;21617;-85
2021/06/29 05:00:49;;;;;;;16.90;3.45;;;;;;;45.27;27.68;101096.41;1734088;82;21038;-85
2021/06/29 05:03:14;;;;;;;6.70;2.87;;;;;;;45.61;26.97;101096.05;1734654;82;21773;-85
2021/06/29 05:05:41;;;;;;;14.25;3.17;;;;;;;45.75;26.36;101095.30;1734261;82;21058;-85
2021/06/29 05:08:08;;;;;;;10.13;3.40;;;;;;;46.01;25.90;101096.84;1734552;82;21118;-84
2021/06/29 05:10:35;;;;;;;5.50;3.37;;;;;;;46.26;25.57;101104.47;1734326;82;21039;-84
2021/06/29 05:13:01;;;;;;;4.72;3.35;;;;;;;46.66;25.08;101109.31;1734183;82;21006;-84
2021/06/29 05:15:28;;;;;;;5.58;3.55;;;;;;;46.87;24.50;101112.78;1734163;82;21719;-85
2021/06/29 05:17:55;;;;;;;7.72;3.25;;;;;;;47.01;23.95;101108.25;1734242;82;21052;-85
2021/06/29 05:20:22;;;;;;;5.17;2.90;;;;;;;47.03;23.27;101104.73;1734363;82;20928;-84
2021/06/29 05:22:48;;;;;;;5.45;2.60;;;;;;;46.92;23.22;101103.83;1734434;82;21027;-85
2021/06/29 05:25:15;;;;;;;2.45;2.25;;;;;;;47.06;22.77;101095.11;1734618;82;21064;-85
2021/06/29 05:27:42;;;;;;;2.65;2.27;;;;;;;47.31;22.35;101095.70;1735189;82;21737;-85
2021/06/29 05:30:09;;;;;;;5.85;2.62;;;;;;;47.53;22.03;101091.53;1734793;82;21156;-84
2021/06/29 05:32:36;;;;;;;13.15;4.65;;;;;;;47.68;21.62;101090.47;1734948;82;21000;-84
2021/06/29 05:35:04;;;;;;;10.20;3.27;;;;;;;47.80;21.26;101085.75;1734844;82;21027;-84
2021/06/29 05:37:30;;;;;;;4.12;2.60;;;;;;;47.85;21.11;101084.09;1735019;82;20991;-84
2021/06/29 05:39:57;;;;;;;4.70;2.50;;;;;;;48.05;20.76;101080.64;1734881;82;21740;-85
2021/06/29 05:42:25;;;;;;;4.45;2.30;;;;;;;48.12;20.56;101088.55;1739792;80;20983;-83
2021/06/29 05:44:51;;;;;;;6.28;2.30;;;;;;;48.00;20.18;101082.66;1740251;82;21074;-83
2021/06/29 05:47:22;;;;;;;4.85;2.50;;;;;;;46.25;19.51;101080.46;1740666;82;20995;-85
2021/06/29 05:49:49;;;;;;;6.83;2.70;;;;;;;43.22;20.00;101088.94;1740476;81;21058;-83
2021/06/29 05:52:15;;;;;;;9.93;2.30;;;;;;;40.21;21.31;101080.70;1740551;82;21793;-81
2021/06/29 05:54:43;;;;;;;7.30;2.08;;;;;;;37.85;22.67;101074.80;1740463;82;21010;-84
2021/06/29 05:57:12;;;;;;;5.20;2.47;;;;;;;35.90;23.87;101074.04;1747037;80;21061;-84
2021/06/29 05:59:40;;;;;;;6.20;2.65;;;;;;;34.15;25.15;101077.50;1751442;81;21049;-83
2021/06/29 06:02:08;;;;;;;15.50;4.15;;;;;;;32.82;26.66;101072.16;1751567;82;21029;-81
2021/06/29 06:04:35;;;;;;;36.38;7.47;;;;;;;31.69;27.75;101078.91;1751640;81;21752;-84
2021/06/29 06:07:02;;;;;;;20.05;6.50;;;;;;;30.71;28.45;101075.75;1751813;82;20951;-84
2021/06/29 06:09:29;;;;;;;12.95;4.78;;;;;;;29.69;29.18;101075.99;1751656;81;21112;-84
2021/06/29 06:11:56;;;;;;;9.73;3.42;;;;;;;28.85;30.25;101070.95;1751651;81;21574;-84
2021/06/29 06:14:22;;;;;;;5.60;2.47;;;;;;;28.20;31.15;101076.11;1751555;81;21041;-84
2021/06/29 06:16:49;;;;;;;1.65;1.50;;;;;;;27.69;31.42;101076.39;1751841;81;21754;-84
2021/06/29 06:19:16;;;;;;;26.17;6.67;;;;;;;27.25;31.46;101079.50;1751816;81;21116;-86
2021/06/29 06:21:43;;;;;;;52.50;13.30;;;;;;;26.93;31.84;101078.48;1751754;82;21010;-84
2021/06/29 06:24:10;;;;;;;11.12;2.98;;;;;;;26.61;32.16;101079.66;1751664;80;20967;-84
2021/06/29 06:26:36;;;;;;;2.00;1.32;;;;;;;26.32;32.38;101071.24;1751778;81;20971;-84
2021/06/29 06:29:03;;;;;;;1.70;1.42;;;;;;;26.02;32.52;101072.72;1751625;80;22562;-84
2021/06/29 06:31:30;;;;;;;1.87;1.42;;;;;;;25.77;32.90;101070.83;1751735;81;21084;-84
2021/06/29 06:33:57;;;;;;;2.05;1.62;;;;;;;25.55;33.33;101070.63;1752202;81;21021;-84
2021/06/29 06:36:24;;;;;;;2.65;1.37;;;;;;;25.43;33.79;101072.84;1751871;81;20990;-84
2021/06/29 06:38:50;;;;;;;6.47;1.75;;;;;;;25.30;34.08;101074.59;1751931;80;21006;-83
2021/06/29 06:41:17;;;;;;;7.28;1.80;;;;;;;25.19;34.55;101078.91;1749967;81;21670;-84
2021/06/29 06:43:44;;;;;;;3.17;1.67;;;;;;;25.12;34.89;101074.64;1746253;82;21132;-84
2021/06/29 06:46:11;;;;;;;11.05;2.45;;;;;;;25.00;35.22;101077.25;1746832;82;21041;-83
2021/06/29 06:48:38;;;;;;;2.50;1.60;;;;;;;24.95;35.40;101076.49;1746741;82;21107;-84
2021/06/29 06:51:05;;;;;;;4.03;1.67;;;;;;;24.86;35.18;101078.58;1752930;81;21047;-82
2021/06/29 06:53:32;;;;;;;8.50;2.60;;;;;;;24.79;35.65;101067.09;1746729;82;21757;-85
2021/06/29 06:55:59;;;;;;;3.92;1.82;;;;;;;24.75;35.92;101069.46;1746559;82;21034;-87
2021/06/29 06:58:26;;;;;;;7.17;2.22;;;;;;;24.66;36.03;101075.11;1746633;82;21049;-86
2021/06/29 07:00:54;;;;;;;27.60;5.95;;;;;;;24.64;36.43;101073.36;1746340;82;21530;-82
2021/06/29 07:03:21;;;;;;;2.08;1.70;;;;;;;24.63;36.32;101076.96;1746746;80;20998;-89
2021/06/29 07:05:48;;;;;;;5.47;2.22;;;;;;;24.60;36.20;101077.51;1746621;81;21702;-89
2021/06/29 07:08:14;;;;;;;22.62;7.55;;;;;;;24.57;36.30;101080.27;1746716;82;21574;-88
2021/06/29 07:10:42;;;;;;;27.67;8.13;;;;;;;24.52;36.16;101084.92;1746573;82;20975;-89
2021/06/29 07:13:09;;;;;;;10.20;4.80;;;;;;;24.50;36.20;101079.55;1746834;82;21128;-86
2021/06/29 07:15:36;;;;;;;10.08;3.58;;;;;;;24.45;36.31;101082.81;1746693;81;21010;-87
2021/06/29 07:18:03;;;;;;;9.15;4.20;;;;;;;24.44;36.50;101084.63;1746847;82;21732;-86
2021/06/29 07:20:29;;;;;;;3.72;1.90;;;;;;;24.42;36.72;101079.76;1746483;82;21096;-87
2021/06/29 07:22:56;;;;;;;9.08;2.90;;;;;;;24.41;36.68;101082.48;1746758;82;21557;-91
2021/06/29 07:25:22;;;;;;;8.68;3.15;;;;;;;24.41;37.50;101079.80;1746806;82;21069;-88
2021/06/29 07:27:49;;;;;;;4.87;2.47;;;;;;;24.45;37.61;101083.69;1746875;82;21014;-85
2021/06/29 07:30:26;;;;;;;3.40;1.57;;;;;;;24.49;37.35;101080.92;1746946;82;21941;-92
2021/06/29 07:32:53;;;;;;;74.03;19.30;;;;;;;24.51;37.53;101077.25;1712807;82;21040;-87
2021/06/29 07:35:21;;;;;;;41.55;13.70;;;;;;;24.54;37.50;101075.00;1712780;83;21069;-91
2021/06/29 07:37:47;;;;;;;27.30;9.05;;;;;;;24.57;37.41;101073.55;1712931;83;21115;-87
2021/06/29 07:40:55;;;;;;;6.00;3.90;;;;;;;24.59;37.47;101070.38;1688887;83;21559;-89
2021/06/29 07:43:22;;;;;;;3.90;1.95;;;;;;;24.61;37.49;101070.73;1738912;82;21789;-89
2021/06/29 07:45:48;;;;;;;6.83;3.98;;;;;;;24.67;37.64;101072.84;1739526;82;21088;-89
2021/06/29 07:48:15;;;;;;;6.70;1.77;;;;;;;24.72;37.49;101070.87;1739769;82;21056;-89
2021/06/29 07:50:47;;;;;;;11.65;2.50;;;;;;;24.73;37.16;101062.77;1739688;81;21179;-95
2021/06/29 07:53:14;;;;;;;7.37;2.92;;;;;;;24.78;37.11;101070.25;1740042;82;21084;-90
2021/06/29 07:55:41;;;;;;;7.20;2.10;;;;;;;24.84;37.38;101065.16;1739962;82;22563;-88
2021/06/29 07:58:07;;;;;;;7.80;2.42;;;;;;;24.92;37.81;101067.15;1739833;82;21071;-86
2021/06/29 08:00:36;;;;;;;4.28;1.75;;;;;;;24.99;37.54;101070.08;1739421;81;21072;-88
2021/06/29 08:03:05;;;;;;;5.28;1.75;;;;;;;25.07;37.79;101077.05;1715335;82;21134;-88
2021/06/29 08:05:32;;;;;;;9.55;2.30;;;;;;;25.12;37.11;101077.34;1740035;82;21021;-88
2021/06/29 08:07:59;;;;;;;4.70;1.95;;;;;;;25.16;36.89;101071.39;1739818;82;21749;-90
2021/06/29 08:10:26;;;;;;;3.15;1.60;;;;;;;25.18;36.73;101077.14;1715118;82;21008;-90
2021/06/29 08:12:53;;;;;;;10.60;1.55;;;;;;;25.15;36.74;101070.52;1740064;81;21382;-93
2021/06/29 08:15:22;;;;;;;2.72;1.40;;;;;;;25.22;37.43;101068.03;1739153;82;21049;-90
2021/06/29 08:17:49;;;;;;;4.15;1.98;;;;;;;25.31;36.91;101064.69;1740090;82;21123;-92
2021/06/29 08:20:16;;;;;;;3.10;2.22;;;;;;;25.36;36.32;101062.27;1740349;82;21860;-90
2021/06/29 08:22:48;;;;;;;7.47;2.37;;;;;;;25.38;36.17;101061.74;1740510;81;21126;-95
2021/06/29 08:29:16;;;;;;;3.67;3.37;;;;;;;25.51;36.72;101058.20;1679488;84;21536;-94
2021/06/29 08:31:42;;;;;;;2.25;1.60;;;;;;;25.59;36.42;101051.20;1612288;89;21113;-95
2021/06/29 08:34:22;;;;;;;7.40;4.55;;;;;;;25.64;36.15;101048.34;1638261;87;21038;-91
2021/06/29 08:36:43;;;;;;;4.97;2.00;;;;;;;25.69;36.29;101047.73;1633568;87;21217;-91
2021/06/29 08:39:11;;;;;;;26.77;3.70;;;;;;;25.76;36.32;101049.30;1639190;87;21062;-89
2021/06/29 08:41:43;;;;;;;4.60;1.47;;;;;;;25.83;36.34;101045.47;1638413;86;21188;-94
2021/06/29 08:44:10;;;;;;;8.08;2.45;;;;;;;25.89;36.37;101039.85;1637367;87;21106;-94
2021/06/29 08:46:37;;;;;;;7.00;2.35;;;;;;;25.97;37.42;101040.97;1637336;87;22619;-91
2021/06/29 08:49:04;;;;;;;9.58;2.10;;;;;;;26.02;37.84;101039.00;1637205;87;21074;-90
2021/06/29 08:51:31;;;;;;;7.72;2.90;;;;;;;26.08;38.38;101041.48;1636973;87;21540;-86
2021/06/29 08:53:57;;;;;;;7.85;3.75;;;;;;;26.13;37.55;101047.60;1636980;87;21099;-87
2021/06/29 08:56:24;;;;;;;4.58;2.33;;;;;;;26.15;36.93;101043.51;1636980;87;21066;-89
2021/06/29 08:58:51;;;;;;;7.62;5.15;;;;;;;26.13;36.86;101035.47;1636964;87;21829;-86
2021/06/29 09:01:26;;;;;;;5.53;2.52;;;;;;;26.17;36.83;101026.32;1636987;86;21051;-94
2021/06/29 09:03:52;;;;;;;3.80;2.77;;;;;;;26.24;37.18;101031.48;1637137;87;21157;-88
2021/06/29 09:06:31;;;;;;;3.80;2.10;;;;;;;26.26;36.47;101027.81;1669165;84;21054;-87
2021/06/29 09:08:58;;;;;;;3.95;1.52;;;;;;;26.29;36.31;101027.69;1671062;84;21030;-91
2021/06/29 09:11:24;;;;;;;3.70;1.80;;;;;;;26.34;35.76;101031.59;1751721;82;21686;-90
2021/06/29 09:14:10;;;;;;;4.42;1.92;;;;;;;26.32;35.70;101030.77;1714081;83;21040;-92
2021/06/29 09:16:36;;;;;;;12.18;3.00;;;;;;;26.34;35.72;101031.59;1713737;83;21039;-89
2021/06/29 09:19:03;;;;;;;4.62;2.20;;;;;;;26.38;36.14;101034.10;1713994;82;21071;-91
2021/06/29 09:21:36;;;;;;;2.60;1.72;;;;;;;26.48;35.69;101028.37;1713922;83;21019;-91
2021/06/29 09:23:58;;;;;;;3.47;1.80;;;;;;;26.56;35.26;101023.59;1750885;82;22620;-93
2021/06/29 09:26:26;;;;;;;7.25;2.35;;;;;;;26.61;35.96;101024.30;1751708;82;21081;-91
2021/06/29 09:28:56;;;;;;;1.95;1.45;;;;;;;26.67;36.27;101027.24;1713992;83;21277;-94
2021/06/29 09:31:27;;;;;;;4.85;4.25;;;;;;;26.74;35.26;101027.43;1714394;83;21544;-91
2021/06/29 09:33:56;;;;;;;4.53;2.92;;;;;;;26.83;35.04;101028.43;1687189;83;21066;-91
2021/06/29 09:36:26;;;;;;;2.05;1.55;;;;;;;26.90;35.46;101018.28;1713807;83;21753;-91
2021/06/29 09:38:55;;;;;;;4.58;3.35;;;;;;;26.94;34.63;101026.20;1713762;82;21071;-91
2021/06/29 09:41:28;;;;;;;4.15;2.08;;;;;;;26.98;34.69;101028.31;1714059;83;20988;-91
2021/06/29 09:44:04;;;;;;;4.67;4.28;;;;;;;27.03;34.53;101032.16;1732383;82;21132;-91
2021/06/29 09:46:31;;;;;;;6.05;3.15;;;;;;;27.04;34.48;101010.50;1727050;82;21038;-91
2021/06/29 09:49:00;;;;;;;4.12;2.87;;;;;;;27.10;34.45;101024.23;1732970;82;21753;-91
2021/06/29 09:51:30;;;;;;;2.83;2.40;;;;;;;27.12;34.44;101007.48;1756926;81;20999;-92
2021/06/29 09:53:59;;;;;;;5.10;2.17;;;;;;;27.11;34.34;101013.37;1691507;84;21655;-93
2021/06/29 09:56:32;;;;;;;9.03;1.98;;;;;;;27.13;35.00;101017.38;1733003;82;21744;-92
2021/06/29 09:58:58;;;;;;;7.08;2.10;;;;;;;27.07;35.62;101006.34;1691309;84;21058;-91
2021/06/29 10:01:29;;;;;;;5.08;2.40;;;;;;;27.04;35.93;100999.69;1755937;81;21661;-91
2021/06/29 10:03:57;;;;;;;5.70;2.10;;;;;;;27.00;35.95;100988.61;1688329;84;21038;-90
2021/06/29 10:06:26;;;;;;;4.22;2.50;;;;;;;27.02;36.28;100994.82;1756171;81;20991;-91
2021/06/29 10:09:03;;;;;;;5.33;2.17;;;;;;;27.10;36.02;100993.16;1691656;84;21142;-91
2021/06/29 10:11:33;;;;;;;8.68;2.67;;;;;;;27.10;35.94;100988.66;1757488;81;21078;-91
2021/06/29 10:14:04;;;;;;;5.58;2.10;;;;;;;27.17;36.75;100997.39;1691375;84;21788;-91
2021/06/29 10:16:39;;;;;;;6.92;2.50;;;;;;;27.18;37.02;100996.91;1732493;82;21004;-91
2021/06/29 10:20:10;;;;;;;;;;;;;;;27.15;37.26;100987.98;1759825;81;21066;-92
2021/06/29 10:21:32;;;;;;;3.67;2.10;;;;;;;27.17;37.43;100993.81;1736465;81;20629;-91
2021/06/29 10:24:06;;;;;;;9.88;2.85;;;;;;;27.15;37.43;100989.34;1691966;84;21061;-90
2021/06/29 10:26:35;;;;;;;6.75;2.25;;;;;;;27.15;37.61;100992.03;1732799;82;21762;-91
2021/06/29 10:29:05;;;;;;;7.08;2.17;;;;;;;27.10;37.63;100989.11;1689989;84;21070;-91
2021/06/29 10:31:33;;;;;;;9.88;2.60;;;;;;;27.03;37.62;100987.14;1757100;81;21014;-91
2021/06/29 10:34:02;;;;;;;3.58;2.50;;;;;;;27.01;37.73;100987.67;1757111;81;21062;-90
2021/06/29 10:36:31;;;;;;;7.78;2.67;;;;;;;27.00;37.76;100989.09;1756978;81;20932;-91
2021/06/29 10:38:58;;;;;;;5.53;2.25;;;;;;;26.99;37.86;100990.91;1757114;81;21769;-91
2021/06/29 10:41:26;;;;;;;5.30;2.52;;;;;;;26.98;38.11;100993.19;1691432;84;21083;-91
2021/06/29 10:43:53;;;;;;;4.28;2.25;;;;;;;27.02;38.05;100992.13;1732741;81;20988;-91
2021/06/29 10:46:35;;;;;;;8.40;2.33;;;;;;;27.00;38.18;100991.78;1732920;82;21078;-91
2021/06/29 10:49:32;;;;;;;4.50;2.42;;;;;;;27.03;38.08;100993.90;1691108;84;21010;-91
2021/06/29 10:52:05;;;;;;;6.97;2.33;;;;;;;27.04;38.17;100995.64;1756914;81;22472;-91
2021/06/29 10:54:55;;;;;;;4.42;2.37;;;;;;;27.02;38.14;100985.84;1757226;81;21073;-91
2021/06/29 10:57:46;;;;;;;7.60;2.37;;;;;;;27.01;38.24;100989.48;1757105;81;21010;-91
2021/06/29 11:04:00;;;;;;;2.98;1.87;;;;;;;27.11;38.23;100993.11;1651198;85;21215;-91
2021/06/29 11:06:33;;;;;;;4.70;2.45;;;;;;;27.16;38.20;100991.59;1622498;88;21988;-92
2021/06/29 11:09:00;;;;;;;5.40;2.47;;;;;;;27.22;38.27;100991.81;1650849;87;21004;-91
2021/06/29 11:11:42;;;;;;;9.70;2.40;;;;;;;27.23;38.37;100994.91;1622781;88;21077;-92
2021/06/29 11:14:27;;;;;;;11.65;2.40;;;;;;;27.19;38.26;100978.41;1586598;87;21544;-92
2021/06/29 11:16:58;;;;;;;8.03;2.08;;;;;;;27.21;38.52;100983.28;1621439;88;21098;-91
2021/06/29 11:19:59;;;;;;;8.30;2.10;;;;;;;27.19;38.33;100983.81;1650665;86;23591;-91
2021/06/29 11:22:49;;;;;;;2.87;1.95;;;;;;;27.14;38.51;100982.19;1650750;86;21561;-91
2021/06/29 11:25:50;;;;;;;6.03;2.37;;;;;;;27.13;38.41;100985.81;1651700;86;21034;-92
2021/06/29 11:28:27;;;;;;;5.00;1.95;;;;;;;27.10;38.41;100977.86;1509035;94;21605;-92
2021/06/29 11:35:16;;;;;;;3.50;2.12;;;;;;;27.22;38.64;100974.25;1553365;92;21054;-92
2021/06/29 11:38:09;;;;;;;6.33;2.70;;;;;;;27.20;38.66;100966.20;1553154;92;21069;-91
2021/06/29 11:41:41;;;;;;;5.87;2.35;;;;;;;27.20;38.66;100963.94;1547516;92;21677;-91
2021/06/29 11:48:43;;;;;;;7.30;2.55;;;;;;;27.05;38.77;100966.83;1461685;98;21148;-91